Time;durP1;ratioP1;P1;durP2;ratioP2;P2;SDS_P1;SDS_P2;PMS_P1;PMS_P2;Temp;Humidity;BMP_temperature;BMP_pressure;BME280_temperature;BME280_humidity;BME280_pressure;Samples;Min_cycle;Max_cycle;Signal;HPM_P1;HPM_P2
2022/11/24 00:01:15;;;;;;;;;;;;;;;7.96;100.00;100178.00;5059910;28;19975;-90
2022/11/24 00:03:41;;;;;;;;;;;;;;;7.97;100.00;100176.25;5059172;28;19916;-89
2022/11/24 00:06:07;;;;;;;;;;;;;;;7.97;100.00;100174.50;5069108;28;19932;-89
2022/11/24 00:08:36;;;;;;;;;;;;;;;7.98;100.00;100178.78;5064455;28;19920;-89
2022/11/24 00:11:14;;;;;;;;;;;;;;;7.98;100.00;100173.56;5077381;28;19951;-89
2022/11/24 00:13:40;;;;;;;;;;;;;;;7.98;100.00;100170.97;5059916;28;20167;-89
2022/11/24 00:16:07;;;;;;;;;;;;;;;7.99;100.00;100169.22;5058685;28;19920;-89
2022/11/24 00:18:32;;;;;;;;;;;;;;;7.98;100.00;100178.78;5058133;28;20156;-89
2022/11/24 00:20:57;;;;;;;;;;;;;;;8.00;100.00;100186.53;5073167;28;19947;-89
2022/11/24 00:23:22;;;;;;;;;;;;;;;8.00;100.00;100191.75;5077656;28;19923;-89
2022/11/24 00:25:48;;;;;;;;;;;;;;;7.99;100.00;100197.91;5062105;28;19920;-89
2022/11/24 00:28:13;;;;;;;;;;;;;;;7.99;100.00;100197.91;5059048;28;19921;-89
2022/11/24 00:30:38;;;;;;;;;;;;;;;7.99;100.00;100195.31;5064921;28;19967;-89
2022/11/24 00:33:04;;;;;;;;;;;;;;;8.00;100.00;100195.22;5057396;28;19916;-89
2022/11/24 00:35:29;;;;;;;;;;;;;;;7.99;100.00;100185.72;5062362;28;19990;-89
2022/11/24 00:37:54;;;;;;;;;;;;;;;7.99;100.00;100197.91;5059933;28;19920;-89
2022/11/24 00:40:21;;;;;;;;;;;;;;;7.99;100.00;100190.09;5039566;28;19991;-89
2022/11/24 00:42:46;;;;;;;;;;;;;;;7.99;100.00;100190.09;5077542;28;19908;-89
2022/11/24 00:45:12;;;;;;;;;;;;;;;7.98;100.00;100193.59;5037925;28;19931;-89
2022/11/24 00:47:37;;;;;;;;;;;;;;;7.99;100.00;100188.31;5057294;28;20097;-89
2022/11/24 00:50:03;;;;;;;;;;;;;;;7.99;100.00;100197.91;5055935;28;20008;-89
2022/11/24 00:52:28;;;;;;;;;;;;;;;7.99;100.00;100193.53;5055915;28;20229;-89
2022/11/24 00:54:54;;;;;;;;;;;;;;;8.00;100.00;100189.16;5056146;28;19908;-89
2022/11/24 00:57:19;;;;;;;;;;;;;;;8.00;100.00;100197.81;5059003;28;19927;-89
2022/11/24 00:59:44;;;;;;;;;;;;;;;8.00;100.00;100199.59;5059719;28;19931;-89
2022/11/24 01:02:09;;;;;;;;;;;;;;;7.99;100.00;100196.13;5059868;28;19927;-89
2022/11/24 01:04:35;;;;;;;;;;;;;;;7.98;100.00;100212.69;5039139;28;19921;-89
2022/11/24 01:07:00;;;;;;;;;;;;;;;7.99;100.00;100211.78;5051527;28;19932;-89
2022/11/24 01:09:25;;;;;;;;;;;;;;;7.99;100.00;100203.97;5056880;28;19927;-89
2022/11/24 01:12:00;;;;;;;;;;;;;;;7.99;100.00;100205.72;5067649;28;19924;-90
2022/11/24 01:14:25;;;;;;;;;;;;;;;7.99;100.00;100200.50;5059110;28;20227;-89
2022/11/24 01:16:51;;;;;;;;;;;;;;;7.99;100.00;100209.19;5061666;28;19928;-90
2022/11/24 01:19:16;;;;;;;;;;;;;;;7.99;100.00;100213.56;5080944;28;19908;-89
2022/11/24 01:21:42;;;;;;;;;;;;;;;7.99;100.00;100216.16;5054536;28;20115;-89
2022/11/24 01:24:08;;;;;;;;;;;;;;;7.99;100.00;100214.41;5059664;28;20200;-89
2022/11/24 01:26:33;;;;;;;;;;;;;;;8.00;100.00;100215.22;5066763;28;19923;-89
2022/11/24 01:29:00;;;;;;;;;;;;;;;7.99;100.00;100206.56;5081132;28;20108;-89
2022/11/24 01:31:25;;;;;;;;;;;;;;;7.99;100.00;100218.75;5058756;28;19912;-89
2022/11/24 01:33:51;;;;;;;;;;;;;;;7.96;100.00;100216.28;5059628;28;19967;-89
2022/11/24 01:36:17;;;;;;;;;;;;;;;7.96;100.00;100237.13;5068819;28;19920;-89
2022/11/24 01:38:42;;;;;;;;;;;;;;;7.97;100.00;100236.22;5059609;28;20236;-89
2022/11/24 01:41:13;;;;;;;;;;;;;;;7.97;100.00;100244.91;5059596;28;19916;-89
2022/11/24 01:43:39;;;;;;;;;;;;;;;7.98;100.00;100237.91;5077826;28;19935;-89
2022/11/24 01:46:12;;;;;;;;;;;;;;;7.97;100.00;100244.06;5062332;28;20003;-89
2022/11/24 01:48:41;;;;;;;;;;;;;;;7.98;100.00;100250.97;5045574;28;19924;-89
2022/11/24 01:51:12;;;;;;;;;;;;;;;7.96;100.00;100250.16;5059245;28;20200;-89
2022/11/24 01:53:40;;;;;;;;;;;;;;;7.93;100.00;100250.28;5074712;28;20204;-89
2022/11/24 01:56:05;;;;;;;;;;;;;;;7.93;100.00;100245.94;5062293;28;20200;-89
2022/11/24 01:58:32;;;;;;;;;;;;;;;7.93;100.00;100256.38;5038805;28;19928;-90
2022/11/24 02:04:03;;;;;;;;;;;;;;;7.94;100.00;100258.03;5067304;28;19955;-90
2022/11/24 02:06:30;;;;;;;;;;;;;;;7.94;100.00;100249.38;5066968;28;19912;-89
2022/11/24 02:08:55;;;;;;;;;;;;;;;7.93;100.00;100243.34;5074596;28;19979;-89
2022/11/24 02:11:22;;;;;;;;;;;;;;;7.94;100.00;100242.41;5078544;28;20015;-89
2022/11/24 02:13:49;;;;;;;;;;;;;;;7.94;100.00;100250.22;5068273;28;19913;-89
2022/11/24 02:16:14;;;;;;;;;;;;;;;7.95;100.00;100253.66;5060669;28;20148;-89
2022/11/24 02:18:40;;;;;;;;;;;;;;;7.95;100.00;100256.28;5052893;28;19924;-89
2022/11/24 02:21:06;;;;;;;;;;;;;;;7.95;100.00;100261.50;5059451;28;19920;-89
2022/11/24 02:23:47;;;;;;;;;;;;;;;7.94;100.00;100268.47;5042324;28;20011;-89
2022/11/24 02:26:31;;;;;;;;;;;;;;;7.95;100.00;100279.75;5059108;28;19925;-89
2022/11/24 02:28:56;;;;;;;;;;;;;;;7.93;100.00;100272.00;5056855;28;19920;-89
2022/11/24 02:31:22;;;;;;;;;;;;;;;7.92;100.00;100267.69;5079535;28;20101;-89
2022/11/24 02:33:48;;;;;;;;;;;;;;;7.92;100.00;100270.28;5051531;28;19924;-89
2022/11/24 02:36:14;;;;;;;;;;;;;;;7.94;100.00;100273.69;5041534;28;19921;-89
2022/11/24 02:38:39;;;;;;;;;;;;;;;7.91;100.00;100271.19;5060816;28;19943;-89
2022/11/24 02:41:06;;;;;;;;;;;;;;;7.92;100.00;100266.84;5057862;28;19924;-89
2022/11/24 02:43:35;;;;;;;;;;;;;;;7.93;100.00;100265.94;5059302;28;20238;-89
2022/11/24 02:46:00;;;;;;;;;;;;;;;7.95;100.00;100269.31;5061286;28;19987;-90
2022/11/24 02:48:27;;;;;;;;;;;;;;;7.92;100.00;100264.25;5077980;28;19971;-89
2022/11/24 02:50:52;;;;;;;;;;;;;;;7.92;100.00;100267.69;5042528;28;19925;-89
2022/11/24 02:53:17;;;;;;;;;;;;;;;7.93;100.00;100268.53;5066958;28;20167;-89
2022/11/24 02:55:42;;;;;;;;;;;;;;;7.94;100.00;100270.25;5063696;28;20164;-89
2022/11/24 02:58:08;;;;;;;;;;;;;;;7.95;100.00;100272.78;5058091;28;19919;-89
2022/11/24 03:00:33;;;;;;;;;;;;;;;7.95;100.00;100277.13;5042100;28;19925;-89
2022/11/24 03:02:58;;;;;;;;;;;;;;;7.96;100.00;100281.47;5046981;28;20044;-89
2022/11/24 03:05:23;;;;;;;;;;;;;;;7.95;100.00;100295.38;5061406;28;19924;-89
2022/11/24 03:07:49;;;;;;;;;;;;;;;7.95;100.00;100291.06;5079707;28;20193;-89
2022/11/24 03:10:14;;;;;;;;;;;;;;;7.96;100.00;100299.72;5070093;28;20227;-89
2022/11/24 03:12:40;;;;;;;;;;;;;;;7.94;100.00;100306.75;5058198;28;19929;-89
2022/11/24 03:15:05;;;;;;;;;;;;;;;7.93;100.00;100305.91;5065176;28;19972;-89
2022/11/24 03:17:30;;;;;;;;;;;;;;;7.94;100.00;100319.78;5078115;28;19981;-89
2022/11/24 03:19:56;;;;;;;;;;;;;;;7.94;100.00;100311.97;5074608;28;19916;-89
2022/11/24 03:22:21;;;;;;;;;;;;;;;7.94;100.00;100315.41;5058436;28;19927;-89
2022/11/24 03:24:46;;;;;;;;;;;;;;;7.95;100.00;100311.03;5044668;28;20184;-89
2022/11/24 03:27:12;;;;;;;;;;;;;;;7.95;100.00;100317.13;5044025;28;19920;-89
2022/11/24 03:29:37;;;;;;;;;;;;;;;7.96;100.00;100325.78;5061011;28;19916;-89
2022/11/24 03:32:02;;;;;;;;;;;;;;;7.95;100.00;100327.56;5043406;28;19995;-89
2022/11/24 03:34:27;;;;;;;;;;;;;;;7.94;100.00;100328.44;5073407;28;19927;-89
2022/11/24 03:36:53;;;;;;;;;;;;;;;7.92;100.00;100319.00;5079440;28;19943;-89
2022/11/24 03:39:18;;;;;;;;;;;;;;;7.92;100.00;100329.44;5075583;28;19978;-89
2022/11/24 03:41:43;;;;;;;;;;;;;;;7.92;100.00;100330.28;5061006;28;19947;-90
2022/11/24 03:44:08;;;;;;;;;;;;;;;7.90;100.00;100324.25;5072357;28;19925;-89
2022/11/24 03:46:35;;;;;;;;;;;;;;;7.92;100.00;100345.06;5040971;28;19920;-89
2022/11/24 03:49:00;;;;;;;;;;;;;;;7.90;100.00;100341.69;5058472;28;19952;-89
2022/11/24 03:51:25;;;;;;;;;;;;;;;7.90;100.00;100345.13;5077934;28;19970;-89
2022/11/24 03:53:51;;;;;;;;;;;;;;;7.87;100.00;100345.22;5078163;28;19921;-89
2022/11/24 03:56:16;;;;;;;;;;;;;;;7.87;100.00;100353.88;5057245;28;19913;-89
2022/11/24 03:58:41;;;;;;;;;;;;;;;7.87;100.00;100366.94;5058288;28;19991;-89
2022/11/24 04:01:07;;;;;;;;;;;;;;;7.87;100.00;100368.69;5056869;28;20195;-89
2022/11/24 04:03:32;;;;;;;;;;;;;;;7.86;100.00;100375.69;5072791;28;19921;-89
2022/11/24 04:05:57;;;;;;;;;;;;;;;7.86;100.00;100380.88;5040917;28;19924;-89
2022/11/24 04:08:23;;;;;;;;;;;;;;;7.86;100.00;100385.25;5039906;28;19978;-89
2022/11/24 04:10:52;;;;;;;;;;;;;;;7.86;100.00;100393.09;5066916;28;19920;-89
2022/11/24 04:13:18;;;;;;;;;;;;;;;7.83;100.00;100399.25;5070845;28;20112;-89
2022/11/24 04:15:44;;;;;;;;;;;;;;;7.83;100.00;100407.06;5066509;28;20215;-89
2022/11/24 04:18:10;;;;;;;;;;;;;;;7.83;100.00;100416.66;5077170;28;20176;-89
2022/11/24 04:20:36;;;;;;;;;;;;;;;7.83;100.00;100417.50;5051893;28;19928;-89
2022/11/24 04:23:01;;;;;;;;;;;;;;;7.83;100.00;100417.50;5039783;28;19940;-89
2022/11/24 04:25:26;;;;;;;;;;;;;;;7.84;100.00;100429.63;5062635;28;19928;-89
2022/11/24 04:27:52;;;;;;;;;;;;;;;7.85;100.00;100433.09;5076584;28;20153;-89
2022/11/24 04:30:18;;;;;;;;;;;;;;;7.85;100.00;100440.91;5056712;28;20231;-89
2022/11/24 04:32:43;;;;;;;;;;;;;;;7.84;100.00;100440.06;5057724;28;19912;-89
2022/11/24 04:35:09;;;;;;;;;;;;;;;7.84;100.00;100442.66;5062798;28;19925;-89
2022/11/24 04:37:34;;;;;;;;;;;;;;;7.84;100.00;100445.28;5060063;28;20180;-89
2022/11/24 04:40:00;;;;;;;;;;;;;;;7.84;100.00;100442.66;5076397;28;20140;-89
2022/11/24 04:42:25;;;;;;;;;;;;;;;7.84;100.00;100449.63;5058587;28;20319;-89
2022/11/24 04:44:50;;;;;;;;;;;;;;;7.84;100.00;100449.63;5039779;28;19999;-89
2022/11/24 04:47:16;;;;;;;;;;;;;;;7.84;100.00;100455.72;5055565;28;19983;-89
2022/11/24 04:49:41;;;;;;;;;;;;;;;7.84;100.00;100460.03;5042370;28;19999;-90
2022/11/24 04:52:06;;;;;;;;;;;;;;;7.85;100.00;100465.22;5045091;28;20122;-89
2022/11/24 04:54:31;;;;;;;;;;;;;;;7.84;100.00;100460.03;5053215;28;19963;-89
2022/11/24 04:56:57;;;;;;;;;;;;;;;7.84;100.00;100463.53;5049708;28;20212;-89
2022/11/24 04:59:22;;;;;;;;;;;;;;;7.85;100.00;100475.63;5039155;28;19921;-89
2022/11/24 05:01:47;;;;;;;;;;;;;;;7.85;100.00;100473.03;5039987;28;19916;-89
2022/11/24 05:04:13;;;;;;;;;;;;;;;7.84;100.00;100481.78;5055060;28;20082;-89
2022/11/24 05:06:39;;;;;;;;;;;;;;;7.84;100.00;100481.78;5057782;28;19920;-89
2022/11/24 05:09:07;;;;;;;;;;;;;;;7.83;100.00;100485.28;5055270;28;19923;-89
2022/11/24 05:11:32;;;;;;;;;;;;;;;7.84;100.00;100488.72;5060239;28;19927;-89
2022/11/24 05:13:57;;;;;;;;;;;;;;;7.84;100.00;100488.72;5057242;28;20200;-89
2022/11/24 05:16:23;;;;;;;;;;;;;;;7.83;100.00;100498.31;5038676;28;19920;-89
2022/11/24 05:18:48;;;;;;;;;;;;;;;7.83;100.00;100500.91;5057802;28;19920;-89
2022/11/24 05:21:13;;;;;;;;;;;;;;;7.84;100.00;100501.75;5074976;28;19913;-89
2022/11/24 05:23:38;;;;;;;;;;;;;;;7.83;100.00;100516.56;5059887;28;20102;-90
2022/11/24 05:26:04;;;;;;;;;;;;;;;7.82;100.00;100519.22;5055389;28;20090;-89
2022/11/24 05:28:29;;;;;;;;;;;;;;;7.80;100.00;100529.69;5052664;28;19939;-89
2022/11/24 05:30:59;;;;;;;;;;;;;;;7.81;100.00;100527.97;5075430;28;19924;-89
2022/11/24 05:33:26;;;;;;;;;;;;;;;7.78;100.00;100526.28;5037406;28;19928;-89
2022/11/24 05:35:53;;;;;;;;;;;;;;;7.80;100.00;100527.09;5077047;28;19926;-89
2022/11/24 05:38:18;;;;;;;;;;;;;;;7.80;100.00;100527.09;5064122;28;19956;-90
2022/11/24 05:40:43;;;;;;;;;;;;;;;7.80;100.00;100531.44;5070940;28;19943;-89
2022/11/24 05:43:13;;;;;;;;;;;;;;;7.79;100.00;100534.97;5057630;28;20144;-89
2022/11/24 05:45:38;;;;;;;;;;;;;;;7.80;100.00;100526.25;5057162;28;20203;-89
2022/11/24 05:48:05;;;;;;;;;;;;;;;7.80;100.00;100537.50;5038847;28;19936;-89
2022/11/24 05:50:30;;;;;;;;;;;;;;;7.81;100.00;100546.22;5039478;28;19960;-89
2022/11/24 05:52:55;;;;;;;;;;;;;;;7.81;100.00;100544.44;5069240;28;19932;-89
2022/11/24 05:55:21;;;;;;;;;;;;;;;7.81;100.00;100548.81;5058106;28;19947;-89
2022/11/24 05:57:56;;;;;;;;;;;;;;;7.81;100.00;100554.03;5054522;28;19956;-89
2022/11/24 06:00:21;;;;;;;;;;;;;;;7.82;100.00;100550.50;5076092;28;19912;-89
2022/11/24 06:02:46;;;;;;;;;;;;;;;7.80;100.00;100553.16;5078746;28;19954;-89
2022/11/24 06:05:12;;;;;;;;;;;;;;;7.82;100.00;100560.94;5061421;28;20117;-89
2022/11/24 06:07:37;;;;;;;;;;;;;;;7.82;100.00;100568.75;5062439;28;19975;-89
2022/11/24 06:10:03;;;;;;;;;;;;;;;7.82;100.00;100576.56;5031766;28;19924;-89
2022/11/24 06:12:28;;;;;;;;;;;;;;;7.83;100.00;100593.94;5058551;28;19991;-89
2022/11/24 06:14:53;;;;;;;;;;;;;;;7.82;100.00;100593.09;5065950;28;19916;-89
2022/11/24 06:17:18;;;;;;;;;;;;;;;7.83;100.00;100599.16;5080001;28;19912;-89
2022/11/24 06:19:46;;;;;;;;;;;;;;;7.82;100.00;100598.31;5074987;28;20762;-89
2022/11/24 06:22:12;;;;;;;;;;;;;;;7.82;100.00;100598.31;5058612;28;19925;-89
2022/11/24 06:24:37;;;;;;;;;;;;;;;7.81;100.00;100596.59;5072833;28;20603;-89
2022/11/24 06:27:02;;;;;;;;;;;;;;;7.82;100.00;100602.66;5078001;28;19916;-89
2022/11/24 06:29:27;;;;;;;;;;;;;;;7.82;100.00;100606.13;5075456;28;20215;-89
2022/11/24 06:31:53;;;;;;;;;;;;;;;7.82;100.00;100618.28;5054587;28;20166;-89
2022/11/24 06:34:18;;;;;;;;;;;;;;;7.82;100.00;100619.16;5044069;28;19929;-89
2022/11/24 06:36:43;;;;;;;;;;;;;;;7.81;100.00;100606.16;5046729;28;19920;-89
2022/11/24 06:39:09;;;;;;;;;;;;;;;7.82;100.00;100619.16;5077758;28;19916;-89
2022/11/24 06:41:34;;;;;;;;;;;;;;;7.81;100.00;100620.06;5052782;28;19920;-89
2022/11/24 06:44:02;;;;;;;;;;;;;;;7.82;100.00;100623.50;5072449;28;19967;-89
2022/11/24 06:46:27;;;;;;;;;;;;;;;7.82;100.00;100629.59;5060627;28;19943;-89
2022/11/24 06:48:55;;;;;;;;;;;;;;;7.82;100.00;100644.34;5077740;28;20212;-89
2022/11/24 06:51:21;;;;;;;;;;;;;;;7.83;100.00;100661.72;5061586;28;20317;-89
2022/11/24 06:53:46;;;;;;;;;;;;;;;7.83;100.00;100659.13;5078197;28;19924;-89
2022/11/24 06:56:12;;;;;;;;;;;;;;;7.82;100.00;100655.66;5077194;28;20096;-89
2022/11/24 06:58:41;;;;;;;;;;;;;;;7.83;100.00;100656.50;5078721;28;19954;-89
2022/11/24 07:01:06;;;;;;;;;;;;;;;7.82;100.00;100673.91;5075176;28;19966;-89
2022/11/24 07:03:32;;;;;;;;;;;;;;;7.82;100.00;100670.44;5074903;28;19925;-89
2022/11/24 07:05:57;;;;;;;;;;;;;;;7.81;100.00;100674.81;5077209;28;19920;-89
2022/11/24 07:08:23;;;;;;;;;;;;;;;7.82;100.00;100678.25;5060111;28;19920;-89
2022/11/24 07:10:48;;;;;;;;;;;;;;;7.81;100.00;100685.22;5074511;28;20167;-90
2022/11/24 07:13:13;;;;;;;;;;;;;;;7.82;100.00;100678.25;5059188;28;20011;-89
2022/11/24 07:15:38;;;;;;;;;;;;;;;7.82;100.00;100692.16;5044856;28;19920;-89
2022/11/24 07:18:04;;;;;;;;;;;;;;;7.84;100.00;100692.09;5078265;28;19923;-90
2022/11/24 07:20:29;;;;;;;;;;;;;;;7.82;100.00;100692.16;5071573;28;19913;-89
2022/11/24 07:22:58;;;;;;;;;;;;;;;7.83;100.00;100711.25;5078239;28;19913;-90
2022/11/24 07:25:23;;;;;;;;;;;;;;;7.83;100.00;100713.88;5075165;28;19977;-89
2022/11/24 07:27:53;;;;;;;;;;;;;;;7.82;100.00;100720.84;5075248;28;19948;-89
2022/11/24 07:30:19;;;;;;;;;;;;;;;7.84;100.00;100720.75;5076163;28;20264;-89
2022/11/24 07:32:44;;;;;;;;;;;;;;;7.82;100.00;100726.06;5043628;28;19932;-89
2022/11/24 07:35:09;;;;;;;;;;;;;;;7.83;100.00;100732.13;5042409;28;19927;-90
2022/11/24 07:37:34;;;;;;;;;;;;;;;7.84;100.00;100729.47;5065190;28;19960;-89
2022/11/24 07:40:02;;;;;;;;;;;;;;;7.84;100.00;100739.00;5066289;28;20367;-90
2022/11/24 07:42:27;;;;;;;;;;;;;;;7.83;100.00;100735.56;5068308;28;20247;-89
2022/11/24 07:44:52;;;;;;;;;;;;;;;7.84;100.00;100741.63;5089091;28;19947;-89
2022/11/24 07:47:17;;;;;;;;;;;;;;;7.84;100.00;100749.44;5061589;28;19932;-89
2022/11/24 07:49:43;;;;;;;;;;;;;;;7.84;100.00;100757.28;5050512;28;20007;-89
2022/11/24 07:52:08;;;;;;;;;;;;;;;7.84;100.00;100755.53;5076508;28;19955;-89
2022/11/24 07:54:33;;;;;;;;;;;;;;;7.84;100.00;100762.47;5058736;28;20199;-89
2022/11/24 07:56:58;;;;;;;;;;;;;;;7.84;100.00;100767.69;5077632;28;19930;-88
2022/11/24 07:59:24;;;;;;;;;;;;;;;7.83;100.00;100766.84;5073320;28;19924;-89
2022/11/24 08:01:49;;;;;;;;;;;;;;;7.83;100.00;100769.47;5053497;28;20104;-89
2022/11/24 08:04:14;;;;;;;;;;;;;;;7.83;100.00;100779.88;5059809;28;19983;-89
2022/11/24 08:06:39;;;;;;;;;;;;;;;7.83;100.00;100776.44;5057057;28;20054;-89
2022/11/24 08:09:05;;;;;;;;;;;;;;;7.82;100.00;100791.25;5050309;28;19916;-89
2022/11/24 08:11:31;;;;;;;;;;;;;;;7.82;100.00;100788.63;5061758;28;19921;-89
2022/11/24 08:13:57;;;;;;;;;;;;;;;7.83;100.00;100786.88;5052130;28;19933;-90
2022/11/24 08:16:22;;;;;;;;;;;;;;;7.84;100.00;100791.16;5075291;28;20183;-89
2022/11/24 08:18:51;;;;;;;;;;;;;;;7.82;100.00;100796.44;5074499;28;19916;-89
2022/11/24 08:21:17;;;;;;;;;;;;;;;7.82;100.00;100799.06;5068798;28;19960;-89
2022/11/24 08:23:42;;;;;;;;;;;;;;;7.82;100.00;100804.28;5073216;28;19924;-89
2022/11/24 08:26:09;;;;;;;;;;;;;;;7.83;100.00;100807.72;5069427;28;20268;-89
2022/11/24 08:28:35;;;;;;;;;;;;;;;7.84;100.00;100807.69;5056883;28;20130;-89
2022/11/24 08:31:04;;;;;;;;;;;;;;;7.83;100.00;100812.94;5051882;28;19983;-89
2022/11/24 08:33:30;;;;;;;;;;;;;;;7.83;100.00;100819.00;5054571;28;19967;-89
2022/11/24 08:35:55;;;;;;;;;;;;;;;7.83;100.00;100819.00;5045543;28;19920;-89
2022/11/24 08:38:21;;;;;;;;;;;;;;;7.83;100.00;100824.22;5071688;28;19987;-89
2022/11/24 08:40:46;;;;;;;;;;;;;;;7.84;100.00;100832.88;5077503;28;20099;-89
2022/11/24 08:43:14;;;;;;;;;;;;;;;7.83;100.00;100832.03;5083920;28;19924;-89
2022/11/24 08:45:44;;;;;;;;;;;;;;;7.83;100.00;100832.03;5063098;28;20213;-89
2022/11/24 08:48:10;;;;;;;;;;;;;;;7.84;100.00;100845.91;5043628;28;19923;-89
2022/11/24 08:50:36;;;;;;;;;;;;;;;7.85;100.00;100837.22;5044350;28;19929;-89
2022/11/24 08:53:01;;;;;;;;;;;;;;;7.86;100.00;100844.16;5071323;28;19931;-89
2022/11/24 08:55:27;;;;;;;;;;;;;;;7.85;100.00;100843.28;5041403;28;19924;-89
2022/11/24 08:57:52;;;;;;;;;;;;;;;7.86;100.00;100844.16;5078752;28;20403;-89
2022/11/24 09:00:21;;;;;;;;;;;;;;;7.86;100.00;100845.00;5065229;28;20031;-89
2022/11/24 09:02:51;;;;;;;;;;;;;;;7.88;100.00;100853.63;5057023;28;20208;-89
2022/11/24 09:05:16;;;;;;;;;;;;;;;7.88;100.00;100861.44;5071572;28;19942;-90
2022/11/24 09:07:41;;;;;;;;;;;;;;;7.88;100.00;100864.06;5064966;28;19916;-89
2022/11/24 09:10:07;;;;;;;;;;;;;;;7.90;100.00;100865.78;5073791;28;19925;-89
2022/11/24 09:12:32;;;;;;;;;;;;;;;7.90;100.00;100865.78;5076457;28;19991;-89
2022/11/24 09:14:57;;;;;;;;;;;;;;;7.90;100.00;100866.63;5044633;28;19917;-89
2022/11/24 09:17:23;;;;;;;;;;;;;;;7.90;100.00;100868.38;5057668;28;19920;-89
2022/11/24 09:19:48;;;;;;;;;;;;;;;7.90;100.00;100874.44;5045248;28;19923;-89
2022/11/24 09:22:14;;;;;;;;;;;;;;;7.91;100.00;100883.13;5051647;28;20204;-89
2022/11/24 09:24:39;;;;;;;;;;;;;;;7.91;100.00;100891.78;5036095;28;19924;-89
2022/11/24 09:27:04;;;;;;;;;;;;;;;7.92;100.00;100900.47;5046634;28;19925;-89
2022/11/24 09:29:29;;;;;;;;;;;;;;;7.93;100.00;100910.00;5058016;28;20096;-89
2022/11/24 09:31:55;;;;;;;;;;;;;;;7.93;100.00;100902.16;5053300;28;20004;-89
2022/11/24 09:34:21;;;;;;;;;;;;;;;7.93;100.00;100910.00;5035818;28;20131;-89
2022/11/24 09:36:46;;;;;;;;;;;;;;;7.92;100.00;100914.38;5037140;28;19931;-89
2022/11/24 09:39:11;;;;;;;;;;;;;;;7.92;100.00;100916.97;5056830;28;19925;-89
2022/11/24 09:41:48;;;;;;;;;;;;;;;7.93;100.00;100917.81;5072329;28;19924;-89
2022/11/24 09:44:33;;;;;;;;;;;;;;;7.92;100.00;100926.56;5071081;28;20127;-89
2022/11/24 09:47:04;;;;;;;;;;;;;;;7.92;100.00;100931.78;5072926;28;19920;-89
2022/11/24 09:49:37;;;;;;;;;;;;;;;7.93;100.00;100938.69;5076755;28;19916;-89
2022/11/24 09:52:08;;;;;;;;;;;;;;;7.94;100.00;100940.41;5085006;28;19920;-89
2022/11/24 09:54:34;;;;;;;;;;;;;;;7.95;100.00;100936.88;5081638;28;19924;-89
2022/11/24 09:57:00;;;;;;;;;;;;;;;7.95;100.00;100940.38;5083337;28;19963;-89
2022/11/24 09:59:26;;;;;;;;;;;;;;;7.97;100.00;100950.75;5084007;28;20182;-89
2022/11/24 10:01:52;;;;;;;;;;;;;;;7.97;100.00;100951.59;5065515;28;19924;-89
2022/11/24 10:04:17;;;;;;;;;;;;;;;7.99;100.00;100956.78;5070274;28;19934;-89
2022/11/24 10:06:46;;;;;;;;;;;;;;;7.99;100.00;100956.78;5065208;28;19956;-89
2022/11/24 10:09:18;;;;;;;;;;;;;;;7.99;100.00;100965.47;5083759;28;19955;-89
2022/11/24 10:12:02;;;;;;;;;;;;;;;7.99;100.00;100967.22;5084966;28;19927;-89
2022/11/24 10:14:46;;;;;;;;;;;;;;;7.99;100.00;100962.00;5067903;28;20107;-89
2022/11/24 10:17:18;;;;;;;;;;;;;;;8.00;100.00;100966.28;5066176;28;19956;-89
2022/11/24 10:20:04;;;;;;;;;;;;;;;8.00;100.00;100974.97;5081741;28;19924;-89
2022/11/24 10:22:45;;;;;;;;;;;;;;;8.01;100.00;100961.03;5082603;28;20270;-89
2022/11/24 10:25:23;;;;;;;;;;;;;;;8.03;100.00;100966.22;5068045;28;19920;-89
2022/11/24 10:27:53;;;;;;;;;;;;;;;8.04;100.00;100968.78;5080056;28;20337;-89
2022/11/24 10:30:22;;;;;;;;;;;;;;;8.04;100.00;100960.97;5080839;28;20023;-89
2022/11/24 10:32:51;;;;;;;;;;;;;;;8.07;100.00;100973.06;5048341;28;19931;-90
2022/11/24 10:35:17;;;;;;;;;;;;;;;8.08;100.00;100974.78;5079241;28;20096;-89
2022/11/24 10:37:47;;;;;;;;;;;;;;;8.08;100.00;100974.78;5077306;28;19927;-89
2022/11/24 10:40:16;;;;;;;;;;;;;;;8.10;100.00;100977.34;5060720;28;19925;-89
2022/11/24 10:42:42;;;;;;;;;;;;;;;8.11;100.00;100981.66;5064716;28;19912;-89
2022/11/24 10:45:07;;;;;;;;;;;;;;;8.11;100.00;100979.88;5064508;28;20109;-89
2022/11/24 10:47:32;;;;;;;;;;;;;;;8.12;100.00;100979.00;5063520;28;20284;-89
2022/11/24 10:50:11;;;;;;;;;;;;;;;8.14;100.00;100987.63;5056940;28;19956;-89
2022/11/24 10:52:40;;;;;;;;;;;;;;;8.15;100.00;100980.66;5076039;28;20216;-90
2022/11/24 10:55:06;;;;;;;;;;;;;;;8.16;100.00;100980.63;5057054;28;20182;-89
2022/11/24 10:57:31;;;;;;;;;;;;;;;8.17;100.00;100981.50;5072719;28;19924;-89
2022/11/24 10:59:56;;;;;;;;;;;;;;;8.16;100.00;100974.56;5073364;28;19987;-89
2022/11/24 11:02:25;;;;;;;;;;;;;;;8.18;100.00;100976.22;5074660;28;19921;-90
2022/11/24 11:04:50;;;;;;;;;;;;;;;8.19;100.00;100972.72;5069004;28;19912;-89
2022/11/24 11:07:20;;;;;;;;;;;;;;;8.20;100.00;100973.56;5077763;28;20124;-89
2022/11/24 11:09:45;;;;;;;;;;;;;;;8.21;100.00;100970.06;5075454;28;19920;-89
2022/11/24 11:12:22;;;;;;;;;;;;;;;8.21;100.00;100976.13;5074853;28;19932;-89
2022/11/24 11:14:48;;;;;;;;;;;;;;;8.22;100.00;100974.38;5058879;28;20178;-89
2022/11/24 11:17:31;;;;;;;;;;;;;;;8.22;100.00;100980.47;5057214;28;19974;-89
2022/11/24 11:20:00;;;;;;;;;;;;;;;8.22;100.00;100976.97;5059874;28;20104;-89
2022/11/24 11:22:29;;;;;;;;;;;;;;;8.23;100.00;100973.47;5070288;28;20123;-90
2022/11/24 11:25:10;;;;;;;;;;;;;;;8.23;100.00;100971.72;5077754;28;20010;-89
2022/11/24 11:27:36;;;;;;;;;;;;;;;8.24;100.00;100983.88;5076165;28;19920;-89
2022/11/24 11:30:20;;;;;;;;;;;;;;;8.26;100.00;100986.44;5051594;28;20220;-89
2022/11/24 11:32:53;;;;;;;;;;;;;;;8.27;100.00;100980.31;5050478;28;19932;-90
2022/11/24 11:35:18;;;;;;;;;;;;;;;8.27;100.00;100973.34;5076550;28;20011;-89
2022/11/24 11:37:44;;;;;;;;;;;;;;;8.27;100.00;100973.34;5052824;28;19921;-91
2022/11/24 11:40:16;;;;;;;;;;;;;;;8.31;100.00;100978.47;5064935;28;19931;-91
2022/11/24 11:42:46;;;;;;;;;;;;;;;8.31;100.00;100978.47;5062664;28;19921;-91
2022/11/24 11:45:19;;;;;;;;;;;;;;;8.33;100.00;100985.38;5063449;28;20263;-91
2022/11/24 11:47:52;;;;;;;;;;;;;;;8.35;100.00;100993.13;5047798;28;19966;-91
2022/11/24 11:50:32;;;;;;;;;;;;;;;8.36;100.00;100987.03;5048184;28;20228;-91
2022/11/24 11:52:58;;;;;;;;;;;;;;;8.37;100.00;100980.94;5047701;28;19987;-89
2022/11/24 11:55:35;;;;;;;;;;;;;;;8.37;100.00;100987.00;5068513;28;20279;-89
2022/11/24 11:58:19;;;;;;;;;;;;;;;8.38;100.00;100990.44;5068464;28;19930;-89
2022/11/24 12:00:49;;;;;;;;;;;;;;;8.40;100.00;100988.63;5048103;28;19997;-89
2022/11/24 12:03:40;;;;;;;;;;;;;;;8.40;100.00;100980.81;5064801;28;19991;-89
2022/11/24 12:06:14;;;;;;;;;;;;;;;8.40;100.00;100973.88;5054706;28;20223;-89
2022/11/24 12:08:57;;;;;;;;;;;;;;;8.43;100.00;100980.75;5055759;28;20236;-89
2022/11/24 12:11:26;;;;;;;;;;;;;;;8.44;100.00;100982.47;5072500;28;19920;-89
2022/11/24 12:14:08;;;;;;;;;;;;;;;8.43;100.00;100986.84;5072417;28;19917;-89
2022/11/24 12:16:41;;;;;;;;;;;;;;;8.48;100.00;100988.44;5076276;28;19967;-88
2022/11/24 12:19:21;;;;;;;;;;;;;;;8.49;100.00;100988.41;5076069;28;20255;-89
2022/11/24 12:22:04;;;;;;;;;;;;;;;8.51;100.00;100986.59;5057745;28;19915;-89
2022/11/24 12:24:30;;;;;;;;;;;;;;;8.52;100.00;100992.69;5056913;28;19924;-88
2022/11/24 12:26:55;;;;;;;;;;;;;;;8.53;100.00;100991.78;5059148;28;19919;-89
2022/11/24 12:29:47;;;;;;;;;;;;;;;8.55;100.00;101000.41;5049551;28;19912;-89
2022/11/24 12:32:18;;;;;;;;;;;;;;;8.56;100.00;100996.91;5057853;28;19924;-89
2022/11/24 12:34:47;;;;;;;;;;;;;;;8.57;100.00;100986.44;5075589;28;19920;-89
2022/11/24 12:37:20;;;;;;;;;;;;;;;8.59;100.00;100992.47;5068719;28;19920;-89
2022/11/24 12:39:49;;;;;;;;;;;;;;;8.60;100.00;100994.19;5065831;28;20212;-89